createdAt,value
2023-05-10T00:00:21.829Z,25.00
2023-05-10T00:01:21.818Z,25.00
2023-05-10T00:02:21.896Z,25.00
2023-05-10T00:03:21.858Z,0.00
2023-05-10T00:04:21.882Z,0.00
2023-05-10T00:05:21.788Z,0.00
2023-05-10T00:06:21.773Z,0.00
2023-05-10T00:07:21.780Z,0.00
2023-05-10T00:08:21.766Z,5.68
2023-05-10T00:09:21.792Z,18.38
2023-05-10T00:10:21.755Z,24.46
2023-05-10T00:11:23.019Z,25.00
2023-05-10T00:12:21.839Z,25.06
2023-05-10T00:13:21.960Z,25.00
2023-05-10T00:14:21.930Z,26.12
2023-05-10T00:15:21.965Z,25.53
2023-05-10T00:16:22.032Z,25.00
2023-05-10T00:17:22.048Z,25.00
2023-05-10T00:18:22.078Z,25.00
2023-05-10T00:19:22.117Z,25.00
2023-05-10T00:20:22.167Z,25.02
2023-05-10T00:21:22.202Z,26.09
2023-05-10T00:22:22.245Z,25.53
2023-05-10T00:23:22.301Z,25.00
2023-05-10T00:24:22.321Z,25.00
2023-05-10T00:25:22.351Z,25.00
2023-05-10T00:26:22.386Z,26.07
2023-05-10T00:27:22.420Z,25.00
2023-05-10T00:28:22.470Z,26.64
2023-05-10T00:29:22.534Z,25.74
2023-05-10T00:30:22.538Z,26.04
2023-05-10T00:31:22.612Z,27.96
2023-05-10T00:32:22.710Z,26.78
2023-05-10T00:33:22.690Z,25.62
2023-05-10T00:34:22.690Z,25.67
2023-05-10T00:35:22.733Z,26.02
2023-05-10T00:36:22.785Z,27.31
2023-05-10T00:37:22.813Z,26.86
2023-05-10T00:38:22.857Z,26.85
2023-05-10T00:39:22.892Z,26.78
2023-05-10T00:40:22.932Z,25.75
2023-05-10T00:41:22.968Z,26.99
2023-05-10T00:42:23.004Z,28.33
2023-05-10T00:43:23.052Z,26.91
2023-05-10T00:44:23.086Z,28.63
2023-05-10T00:45:23.148Z,26.97
2023-05-10T00:46:23.243Z,26.62
2023-05-10T00:47:23.232Z,26.06
2023-05-10T00:48:23.249Z,25.86
2023-05-10T00:49:23.330Z,26.64
2023-05-10T00:50:23.319Z,26.96
2023-05-10T00:51:23.365Z,27.76
2023-05-10T00:52:23.410Z,27.62
2023-05-10T00:53:23.449Z,27.03
2023-05-10T00:54:23.476Z,27.88
2023-05-10T00:55:23.517Z,25.00
2023-05-10T00:56:23.548Z,27.22
2023-05-10T00:57:23.584Z,28.28
2023-05-10T00:58:23.625Z,26.60
2023-05-10T00:59:23.679Z,27.56
2023-05-10T01:00:23.696Z,26.78
2023-05-10T01:01:23.809Z,26.67
2023-05-10T01:02:23.834Z,26.58
2023-05-10T01:03:23.817Z,27.41
2023-05-10T01:04:23.826Z,27.22
2023-05-10T01:05:23.983Z,25.02
2023-05-10T01:06:23.928Z,27.03
2023-05-10T01:07:23.945Z,25.39
2023-05-10T01:08:23.973Z,28.50
2023-05-10T01:09:24.013Z,27.50
2023-05-10T01:10:24.039Z,28.60
2023-05-10T01:11:24.078Z,27.16
2023-05-10T01:12:24.170Z,28.70
2023-05-10T01:13:24.281Z,26.69
2023-05-10T01:14:24.216Z,26.20
2023-05-10T01:15:24.241Z,25.00
2023-05-10T01:16:24.321Z,28.63
2023-05-10T01:17:24.365Z,29.35
2023-05-10T01:18:24.356Z,27.14
2023-05-10T01:19:24.409Z,30.30
2023-05-10T01:20:24.433Z,29.54
2023-05-10T01:21:24.481Z,28.32
2023-05-10T01:22:24.553Z,28.45
2023-05-10T01:23:24.564Z,29.85
2023-05-10T01:24:24.599Z,28.68
2023-05-10T01:25:24.638Z,30.98
2023-05-10T01:26:24.679Z,31.57
2023-05-10T01:27:24.720Z,28.28
2023-05-10T01:28:24.758Z,29.89
2023-05-10T01:29:24.791Z,30.70
2023-05-10T01:30:24.989Z,30.43
2023-05-10T01:31:24.911Z,29.44
2023-05-10T01:32:24.912Z,30.33
2023-05-10T01:33:24.969Z,32.44
2023-05-10T01:34:24.980Z,30.81
2023-05-10T01:35:25.023Z,30.52
2023-05-10T01:36:25.077Z,29.43
2023-05-10T01:37:25.107Z,33.18
2023-05-10T01:38:25.142Z,31.90
2023-05-10T01:39:25.189Z,31.18
2023-05-10T01:40:25.220Z,31.98
2023-05-10T01:41:25.261Z,33.22
2023-05-10T01:42:25.307Z,32.35
2023-05-10T01:43:25.357Z,32.75
2023-05-10T01:44:25.413Z,32.51
2023-05-10T01:45:25.428Z,32.31
2023-05-10T01:46:25.513Z,32.44
2023-05-10T01:47:25.535Z,32.56
2023-05-10T01:48:25.577Z,33.61
2023-05-10T01:49:25.647Z,30.52
2023-05-10T01:50:25.658Z,31.73
2023-05-10T01:51:25.699Z,32.06
2023-05-10T01:52:25.748Z,32.52
2023-05-10T01:53:25.792Z,33.52
2023-05-10T01:54:25.849Z,30.08
2023-05-10T01:55:25.875Z,33.36
2023-05-10T01:56:26.141Z,32.97
2023-05-10T01:57:25.968Z,34.88
2023-05-10T01:58:26.007Z,32.58
2023-05-10T01:59:26.075Z,32.86
2023-05-10T02:00:26.120Z,30.96
2023-05-10T02:01:26.164Z,33.88
2023-05-10T02:02:26.262Z,32.97
2023-05-10T02:03:26.303Z,34.39
2023-05-10T02:04:26.295Z,32.59
2023-05-10T02:05:26.366Z,32.39
2023-05-10T02:06:26.384Z,32.82
2023-05-10T02:07:26.433Z,31.58
2023-05-10T02:08:26.476Z,33.60
2023-05-10T02:09:26.526Z,31.72
2023-05-10T02:10:26.578Z,33.19
2023-05-10T02:11:26.641Z,33.40
2023-05-10T02:12:26.665Z,30.87
2023-05-10T02:13:26.834Z,33.76
2023-05-10T02:14:26.760Z,32.53
2023-05-10T02:15:26.800Z,33.39
2023-05-10T02:16:26.864Z,33.67
2023-05-10T02:17:26.940Z,32.51
2023-05-10T02:18:26.940Z,34.14
2023-05-10T02:19:26.989Z,33.04
2023-05-10T02:20:27.032Z,32.24
2023-05-10T02:21:27.114Z,33.25
2023-05-10T02:22:27.125Z,33.37
2023-05-10T02:23:27.171Z,33.72
2023-05-10T02:24:27.218Z,32.75
2023-05-10T02:25:27.307Z,33.16
2023-05-10T02:26:27.322Z,33.13
2023-05-10T02:27:27.375Z,34.15
2023-05-10T02:28:27.414Z,34.76
2023-05-10T02:29:27.466Z,32.55
2023-05-10T02:30:27.528Z,33.41
2023-05-10T02:31:27.597Z,34.40
2023-05-10T02:32:27.660Z,34.41
2023-05-10T02:33:27.688Z,33.87
2023-05-10T02:34:27.732Z,35.11
2023-05-10T02:35:27.786Z,34.69
2023-05-10T02:36:27.818Z,34.31
2023-05-10T02:37:27.889Z,35.53
2023-05-10T02:38:27.955Z,35.33
2023-05-10T02:39:27.965Z,33.76
2023-05-10T02:40:28.853Z,35.95
2023-05-10T02:41:28.056Z,34.75
2023-05-10T02:42:28.102Z,33.48
2023-05-10T02:43:28.157Z,34.62
2023-05-10T02:44:28.201Z,34.46
2023-05-10T02:45:28.247Z,32.40
2023-05-10T02:46:28.381Z,33.06
2023-05-10T02:47:28.387Z,33.92
2023-05-10T02:48:28.390Z,35.38
2023-05-10T02:49:28.454Z,33.16
2023-05-10T02:50:28.487Z,34.74
2023-05-10T02:51:28.533Z,34.29
2023-05-10T02:52:28.578Z,34.90
2023-05-10T02:53:28.699Z,33.31
2023-05-10T02:54:28.680Z,35.72
2023-05-10T02:55:28.716Z,33.30
2023-05-10T02:56:28.774Z,33.57
2023-05-10T02:57:28.832Z,33.73
2023-05-10T02:58:28.884Z,33.68
2023-05-10T02:59:28.916Z,33.86
2023-05-10T03:00:28.994Z,34.42
2023-05-10T03:01:29.060Z,33.29
2023-05-10T03:02:29.111Z,33.88
2023-05-10T03:03:29.112Z,34.12
2023-05-10T03:04:29.188Z,34.23
2023-05-10T03:05:29.214Z,33.88
2023-05-10T03:06:29.266Z,33.66
2023-05-10T03:07:29.311Z,34.14
2023-05-10T03:08:29.351Z,34.56
2023-05-10T03:09:29.503Z,34.48
2023-05-10T03:10:29.453Z,34.29
2023-05-10T03:11:29.495Z,33.48
2023-05-10T03:12:29.546Z,34.14
2023-05-10T03:13:29.633Z,35.34
2023-05-10T03:14:29.632Z,33.63
2023-05-10T03:15:29.675Z,35.19
2023-05-10T03:16:29.790Z,34.63
2023-05-10T03:17:29.797Z,34.62
2023-05-10T03:18:29.809Z,34.27
2023-05-10T03:19:29.864Z,35.74
2023-05-10T03:20:29.901Z,34.37
2023-05-10T03:21:29.957Z,35.68
2023-05-10T03:22:30.007Z,34.62
2023-05-10T03:23:30.039Z,34.62
2023-05-10T03:24:30.114Z,34.48
2023-05-10T03:25:30.164Z,33.60
2023-05-10T03:26:30.223Z,34.11
2023-05-10T03:27:30.246Z,33.86
2023-05-10T03:28:30.302Z,35.33
2023-05-10T03:29:30.353Z,33.90
2023-05-10T03:30:30.393Z,34.74
2023-05-10T03:31:30.460Z,34.35
2023-05-10T03:32:30.518Z,34.59
2023-05-10T03:33:30.538Z,33.60
2023-05-10T03:34:30.590Z,34.97
2023-05-10T03:35:30.642Z,35.52
2023-05-10T03:36:30.690Z,34.63
2023-05-10T03:37:30.751Z,34.00
2023-05-10T03:38:30.851Z,34.74
2023-05-10T03:39:30.839Z,32.22
2023-05-10T03:40:30.881Z,33.05
2023-05-10T03:41:30.960Z,35.11
2023-05-10T03:42:30.985Z,33.89
2023-05-10T03:43:31.041Z,31.52
2023-05-10T03:44:31.079Z,33.20
2023-05-10T03:45:31.122Z,33.70
2023-05-10T03:46:31.215Z,35.15
2023-05-10T03:47:31.301Z,36.21
2023-05-10T03:48:31.299Z,31.98
2023-05-10T03:49:31.328Z,34.20
2023-05-10T03:50:31.376Z,35.26
2023-05-10T03:51:31.427Z,36.16
2023-05-10T03:52:31.497Z,34.80
2023-05-10T03:53:31.551Z,35.82
2023-05-10T03:54:31.604Z,33.88
2023-05-10T03:55:31.642Z,34.80
2023-05-10T03:56:31.697Z,35.15
2023-05-10T03:57:31.766Z,33.67
2023-05-10T03:58:31.799Z,33.17
2023-05-10T03:59:31.858Z,33.79
2023-05-10T04:00:31.904Z,35.64
2023-05-10T04:01:31.985Z,32.36
2023-05-10T04:02:32.089Z,32.95
2023-05-10T04:03:32.239Z,33.31
2023-05-10T04:04:32.113Z,33.96
2023-05-10T04:05:32.169Z,35.32
2023-05-10T04:06:32.269Z,34.34
2023-05-10T04:07:32.276Z,32.78
2023-05-10T04:08:32.330Z,32.66
2023-05-10T04:09:32.393Z,33.46
2023-05-10T04:10:32.453Z,34.31
2023-05-10T04:11:32.485Z,32.33
2023-05-10T04:12:32.541Z,34.40
2023-05-10T04:13:32.613Z,34.04
2023-05-10T04:14:32.637Z,32.89
2023-05-10T04:15:32.674Z,33.35
2023-05-10T04:16:32.755Z,33.09
2023-05-10T04:17:32.797Z,33.40
2023-05-10T04:18:32.832Z,33.86
2023-05-10T04:19:32.876Z,33.04
2023-05-10T04:20:32.973Z,32.96
2023-05-10T04:21:32.971Z,32.42
2023-05-10T04:22:33.026Z,33.32
2023-05-10T04:23:33.086Z,32.88
2023-05-10T04:24:33.136Z,31.86
2023-05-10T04:25:33.207Z,33.28
2023-05-10T04:26:33.232Z,34.67
2023-05-10T04:27:33.285Z,32.98
2023-05-10T04:28:33.350Z,30.66
2023-05-10T04:29:33.430Z,31.87
2023-05-10T04:30:33.483Z,32.91
2023-05-10T04:31:33.490Z,30.73
2023-05-10T04:32:33.573Z,32.03
2023-05-10T04:33:33.586Z,33.10
2023-05-10T04:34:33.635Z,32.92
2023-05-10T04:35:33.684Z,32.32
2023-05-10T04:36:33.737Z,31.59
2023-05-10T04:37:33.794Z,31.48
2023-05-10T04:38:33.836Z,33.75
2023-05-10T04:39:33.923Z,33.45
2023-05-10T04:40:33.952Z,32.90
2023-05-10T04:41:33.979Z,31.06
2023-05-10T04:42:34.031Z,30.56
2023-05-10T04:43:34.088Z,31.82
2023-05-10T04:44:34.155Z,33.64
2023-05-10T04:45:34.236Z,30.61
2023-05-10T04:46:34.297Z,30.54
2023-05-10T04:47:34.313Z,31.04
2023-05-10T04:48:34.336Z,31.47
2023-05-10T04:49:34.385Z,32.06
2023-05-10T04:50:34.434Z,31.39
2023-05-10T04:51:34.492Z,30.01
2023-05-10T04:52:34.524Z,30.48
2023-05-10T04:53:34.571Z,29.65
2023-05-10T04:54:34.621Z,32.51
2023-05-10T04:55:34.691Z,32.90
2023-05-10T04:56:34.833Z,29.31
2023-05-10T04:57:34.756Z,33.23
2023-05-10T04:58:34.800Z,32.38
2023-05-10T04:59:34.852Z,30.99
2023-05-10T05:00:34.903Z,32.02
2023-05-10T05:01:35.059Z,32.54
2023-05-10T05:02:35.051Z,32.86
2023-05-10T05:03:35.138Z,32.15
2023-05-10T05:04:35.096Z,30.14
2023-05-10T05:05:35.159Z,28.94
2023-05-10T05:06:35.191Z,31.15
2023-05-10T05:07:35.228Z,31.27
2023-05-10T05:08:35.284Z,31.90
2023-05-10T05:09:35.337Z,30.21
2023-05-10T05:10:35.373Z,31.65
2023-05-10T05:11:35.427Z,30.79
2023-05-10T05:12:35.467Z,30.63
2023-05-10T05:13:35.518Z,30.20
2023-05-10T05:14:35.582Z,31.53
2023-05-10T05:15:35.646Z,32.33
2023-05-10T05:16:35.790Z,31.36
2023-05-10T05:17:35.755Z,30.64
2023-05-10T05:18:35.777Z,30.73
2023-05-10T05:19:36.172Z,30.11
2023-05-10T05:20:36.172Z,29.99
2023-05-10T05:21:35.934Z,31.97
2023-05-10T05:22:36.010Z,32.79
2023-05-10T05:23:36.023Z,31.13
2023-05-10T05:24:36.057Z,31.65
2023-05-10T05:25:36.106Z,32.45
2023-05-10T05:26:36.226Z,33.89
2023-05-10T05:27:36.195Z,36.22
2023-05-10T05:28:36.239Z,34.49
2023-05-10T05:29:36.288Z,35.82
2023-05-10T05:30:36.329Z,36.72
2023-05-10T05:31:36.417Z,36.29
2023-05-10T05:32:36.520Z,37.49
2023-05-10T05:33:36.467Z,37.93
2023-05-10T05:34:36.494Z,40.51
2023-05-10T05:35:36.532Z,41.14
2023-05-10T05:36:37.657Z,43.20
2023-05-10T05:37:36.593Z,41.87
2023-05-10T05:38:36.630Z,43.46
2023-05-10T05:39:36.674Z,43.65
2023-05-10T05:40:36.714Z,46.12
2023-05-10T05:41:36.756Z,46.05
2023-05-10T05:42:36.830Z,48.95
2023-05-10T05:43:38.321Z,47.90
2023-05-10T05:44:37.187Z,46.99
2023-05-10T05:45:36.868Z,55.56
2023-05-10T05:46:36.802Z,55.36
2023-05-10T05:47:36.833Z,61.59
2023-05-10T05:48:36.803Z,62.48
2023-05-10T05:49:52.800Z,61.98
2023-05-10T05:50:37.198Z,62.43
2023-05-10T05:51:36.771Z,63.05
2023-05-10T05:52:36.770Z,63.84
2023-05-10T05:53:36.760Z,72.94
2023-05-10T05:54:37.185Z,81.64
2023-05-10T05:55:36.740Z,81.02
2023-05-10T05:56:36.745Z,90.17
2023-05-10T05:57:37.224Z,86.05
2023-05-10T05:58:36.715Z,85.18
2023-05-10T05:59:37.186Z,87.19
2023-05-10T06:00:36.729Z,102.36
2023-05-10T06:01:36.694Z,106.02
2023-05-10T06:02:36.894Z,112.62
2023-05-10T06:03:37.774Z,115.00
2023-05-10T06:04:37.728Z,122.33
2023-05-10T06:05:36.701Z,130.24
2023-05-10T06:06:36.675Z,137.06
2023-05-10T06:07:36.690Z,143.85
2023-05-10T06:08:36.652Z,149.13
2023-05-10T06:09:36.652Z,152.49
2023-05-10T06:10:36.660Z,153.79
2023-05-10T06:11:36.630Z,158.34
2023-05-10T06:12:36.710Z,163.46
2023-05-10T06:13:36.695Z,167.06
2023-05-10T06:14:36.644Z,170.70
2023-05-10T06:15:36.668Z,177.14
2023-05-10T06:16:36.650Z,178.77
2023-05-10T06:17:36.652Z,180.21
2023-05-10T06:18:36.607Z,187.06
2023-05-10T06:19:36.571Z,182.37
2023-05-10T06:20:36.561Z,199.25
2023-05-10T06:21:37.243Z,203.75
2023-05-10T06:22:36.558Z,202.78
2023-05-10T06:23:36.550Z,208.87
2023-05-10T06:24:36.698Z,201.75
2023-05-10T06:25:36.860Z,210.89
2023-05-10T06:26:36.526Z,214.61
2023-05-10T06:27:36.510Z,219.04
2023-05-10T06:28:36.518Z,215.58
2023-05-10T06:29:36.704Z,221.83
2023-05-10T06:30:36.515Z,225.30
2023-05-10T06:31:36.604Z,232.33
2023-05-10T06:32:36.622Z,232.24
2023-05-10T06:33:36.594Z,234.76
2023-05-10T06:34:36.699Z,239.79
2023-05-10T06:35:36.676Z,243.44
2023-05-10T06:36:36.727Z,238.05
2023-05-10T06:37:36.808Z,246.48
2023-05-10T06:38:37.210Z,240.79
2023-05-10T06:39:36.903Z,246.64
2023-05-10T06:40:36.925Z,244.46
2023-05-10T06:41:36.988Z,247.34
2023-05-10T06:42:37.031Z,249.52
2023-05-10T06:43:37.104Z,242.32
2023-05-10T06:44:37.205Z,248.98
2023-05-10T06:45:37.240Z,249.16
2023-05-10T06:46:37.372Z,244.32
2023-05-10T06:47:38.903Z,243.02
2023-05-10T06:48:37.352Z,241.67
2023-05-10T06:49:37.708Z,232.49
2023-05-10T06:51:09.582Z,234.55
2023-05-10T06:51:37.325Z,235.05
2023-05-10T06:52:37.360Z,235.61
2023-05-10T06:53:40.544Z,236.07
2023-05-10T06:54:37.715Z,235.02
2023-05-10T06:55:37.298Z,232.12
2023-05-10T06:56:37.296Z,234.59
2023-05-10T06:57:37.315Z,236.02
2023-05-10T06:58:37.290Z,235.44
2023-05-10T06:59:37.326Z,235.75
2023-05-10T07:01:09.268Z,229.57
2023-05-10T07:01:37.292Z,230.09
2023-05-10T07:02:37.291Z,230.57
2023-05-10T07:03:37.270Z,231.76
2023-05-10T07:04:37.754Z,232.37
2023-05-10T07:05:38.267Z,232.96
2023-05-10T07:06:37.271Z,233.67
2023-05-10T07:07:37.237Z,229.53
2023-05-10T07:08:37.225Z,230.49
2023-05-10T07:09:37.375Z,222.91
2023-05-10T07:10:37.233Z,225.53
2023-05-10T07:11:37.193Z,227.35
2023-05-10T07:12:37.231Z,228.71
2023-05-10T07:13:37.242Z,227.52
2023-05-10T07:14:37.177Z,225.48
2023-05-10T07:15:37.173Z,227.18
2023-05-10T07:16:38.831Z,225.80
2023-05-10T07:17:37.215Z,226.87
2023-05-10T07:18:37.216Z,230.53
2023-05-10T07:19:37.141Z,228.32
2023-05-10T07:20:37.147Z,227.96
2023-05-10T07:21:37.213Z,226.61
2023-05-10T07:22:37.159Z,224.50
2023-05-10T07:23:37.146Z,226.19
2023-05-10T07:24:37.102Z,223.82
2023-05-10T07:25:37.124Z,224.38
2023-05-10T07:26:37.220Z,221.10
2023-05-10T07:27:37.099Z,224.64
2023-05-10T07:28:37.227Z,221.60
2023-05-10T07:29:37.079Z,221.11
2023-05-10T07:30:37.118Z,218.82
2023-05-10T07:31:37.127Z,216.96
2023-05-10T07:32:44.706Z,217.71
2023-05-10T07:33:37.052Z,218.10
2023-05-10T07:34:37.219Z,218.72
2023-05-10T07:35:37.053Z,218.95
2023-05-10T07:36:44.496Z,218.27
2023-05-10T07:37:37.052Z,218.13
2023-05-10T07:38:38.952Z,218.84
2023-05-10T07:39:37.251Z,218.16
2023-05-10T07:40:37.007Z,218.86
2023-05-10T07:41:37.023Z,219.20
2023-05-10T07:42:37.003Z,220.34
2023-05-10T07:43:37.018Z,224.90
2023-05-10T07:44:37.264Z,227.12
2023-05-10T07:45:37.059Z,228.78
2023-05-10T07:46:36.990Z,228.04
2023-05-10T07:47:36.953Z,231.11
2023-05-10T07:48:36.982Z,233.64
2023-05-10T07:49:37.247Z,234.01
2023-05-10T07:50:36.957Z,234.94
2023-05-10T07:51:36.935Z,237.80
2023-05-10T07:52:37.150Z,241.53
2023-05-10T07:53:36.904Z,242.79
2023-05-10T07:54:37.228Z,241.34
2023-05-10T07:55:36.900Z,241.03
2023-05-10T07:56:37.075Z,241.31
2023-05-10T07:57:36.909Z,238.73
2023-05-10T07:58:36.886Z,245.54
2023-05-10T07:59:38.259Z,241.88
2023-05-10T08:00:36.874Z,244.28
2023-05-10T08:01:37.241Z,240.27
2023-05-10T08:02:37.069Z,237.53
2023-05-10T08:03:36.946Z,238.79
2023-05-10T08:04:36.935Z,236.00
2023-05-10T08:05:36.896Z,238.17
2023-05-10T08:06:37.242Z,237.24
2023-05-10T08:07:36.897Z,233.22
2023-05-10T08:08:36.916Z,238.21
2023-05-10T08:09:36.936Z,232.21
2023-05-10T08:10:36.946Z,231.99
2023-05-10T08:11:36.966Z,233.14
2023-05-10T08:12:36.983Z,229.81
2023-05-10T08:13:37.050Z,232.07
2023-05-10T08:14:37.015Z,232.26
2023-05-10T08:15:37.049Z,230.86
2023-05-10T08:16:37.065Z,231.25
2023-05-10T08:17:37.079Z,229.50
2023-05-10T08:18:37.133Z,230.59
2023-05-10T08:19:37.117Z,229.47
2023-05-10T08:20:37.131Z,230.13
2023-05-10T08:21:37.161Z,228.85
2023-05-10T08:22:37.181Z,230.22
2023-05-10T08:23:37.191Z,227.36
2023-05-10T08:24:37.204Z,227.18
2023-05-10T08:25:37.239Z,225.31
2023-05-10T08:26:37.249Z,226.92
2023-05-10T08:27:37.257Z,226.45
2023-05-10T08:28:37.306Z,228.41
2023-05-10T08:29:48.946Z,224.70
2023-05-10T08:30:37.298Z,224.99
2023-05-10T08:31:37.313Z,225.60
2023-05-10T08:32:37.313Z,224.57
2023-05-10T08:33:37.278Z,224.75
2023-05-10T08:34:38.277Z,223.43
2023-05-10T08:35:37.734Z,223.81
2023-05-10T08:36:37.256Z,223.94
2023-05-10T08:37:37.258Z,221.49
2023-05-10T08:38:37.268Z,222.75
2023-05-10T08:39:37.771Z,221.33
2023-05-10T08:41:09.029Z,220.79
2023-05-10T08:41:37.426Z,221.12
2023-05-10T08:42:37.238Z,221.78
2023-05-10T08:43:37.287Z,220.92
2023-05-10T08:44:37.274Z,221.53
2023-05-10T08:45:37.312Z,219.39
2023-05-10T08:46:37.258Z,216.26
2023-05-10T08:47:37.256Z,215.95
2023-05-10T08:48:37.192Z,214.06
2023-05-10T08:49:37.182Z,216.33
2023-05-10T08:50:37.245Z,214.65
2023-05-10T08:51:37.169Z,212.28
2023-05-10T08:52:37.157Z,214.36
2023-05-10T08:53:37.155Z,211.65
2023-05-10T08:54:38.269Z,212.77
2023-05-10T08:55:37.132Z,212.55
2023-05-10T08:56:37.125Z,211.34
2023-05-10T08:57:37.130Z,211.08
2023-05-10T08:58:40.478Z,209.54
2023-05-10T08:59:37.101Z,209.78
2023-05-10T09:00:37.147Z,209.73
2023-05-10T09:01:37.120Z,209.79
2023-05-10T09:02:37.115Z,209.56
2023-05-10T09:03:37.158Z,208.77
2023-05-10T09:04:37.394Z,206.83
2023-05-10T09:05:37.067Z,207.45
2023-05-10T09:06:37.056Z,206.46
2023-05-10T09:07:37.051Z,205.96
2023-05-10T09:08:37.045Z,207.44
2023-05-10T09:09:37.287Z,204.56
2023-05-10T09:10:37.023Z,205.98
2023-05-10T09:11:37.025Z,206.49
2023-05-10T09:12:37.005Z,203.99
2023-05-10T09:13:36.995Z,205.26
2023-05-10T09:14:37.588Z,204.75
2023-05-10T09:15:37.254Z,202.63
2023-05-10T09:16:36.997Z,204.10
2023-05-10T09:17:37.010Z,203.91
2023-05-10T09:18:36.982Z,202.03
2023-05-10T09:19:36.955Z,202.91
2023-05-10T09:20:37.277Z,200.09
2023-05-10T09:21:37.048Z,201.63
2023-05-10T09:22:36.998Z,202.19
2023-05-10T09:23:36.939Z,201.50
2023-05-10T09:24:36.934Z,201.89
2023-05-10T09:25:37.259Z,201.32
2023-05-10T09:26:36.912Z,200.19
2023-05-10T09:27:36.898Z,198.65
2023-05-10T09:28:36.969Z,200.30
2023-05-10T09:29:37.294Z,213.46
2023-05-10T09:30:37.015Z,212.50
2023-05-10T09:31:37.033Z,202.36
2023-05-10T09:32:37.094Z,238.73
2023-05-10T09:33:38.218Z,232.33
2023-05-10T09:34:37.267Z,246.28
2023-05-10T09:35:37.288Z,236.33
2023-05-10T09:36:37.301Z,248.69
2023-05-10T09:37:37.265Z,230.67
2023-05-10T09:38:37.761Z,234.93
2023-05-10T09:39:37.335Z,216.22
2023-05-10T09:40:37.373Z,172.80
2023-05-10T09:41:37.424Z,143.17
2023-05-10T09:42:37.461Z,146.87
2023-05-10T09:43:37.764Z,153.75
2023-05-10T09:44:37.609Z,153.95
2023-05-10T09:45:39.188Z,172.13
2023-05-10T09:46:37.723Z,178.45
2023-05-10T09:47:37.703Z,196.11
2023-05-10T09:48:37.630Z,208.44
2023-05-10T09:49:37.842Z,230.00
2023-05-10T09:50:37.658Z,239.03
2023-05-10T09:51:37.668Z,241.65
2023-05-10T09:52:37.591Z,249.99
2023-05-10T09:53:37.772Z,249.97
2023-05-10T09:54:37.637Z,250.00
2023-05-10T09:55:37.585Z,248.58
2023-05-10T09:56:37.900Z,250.00
2023-05-10T09:57:37.562Z,250.00
2023-05-10T09:58:37.554Z,250.00
2023-05-10T09:59:37.549Z,250.00
2023-05-10T10:00:37.777Z,248.31
2023-05-10T10:01:37.696Z,250.21
2023-05-10T10:02:37.576Z,250.00
2023-05-10T10:03:37.522Z,244.14
2023-05-10T10:04:37.566Z,250.00
2023-05-10T10:05:37.809Z,250.00
2023-05-10T10:06:37.497Z,249.15
2023-05-10T10:07:37.499Z,246.96
2023-05-10T10:08:37.488Z,250.74
2023-05-10T10:09:37.522Z,244.31
2023-05-10T10:10:37.790Z,246.43
2023-05-10T10:11:37.489Z,250.00
2023-05-10T10:12:37.464Z,248.46
2023-05-10T10:13:37.531Z,249.16
2023-05-10T10:14:37.457Z,246.42
2023-05-10T10:15:37.847Z,249.54
2023-05-10T10:16:39.935Z,245.19
2023-05-10T10:17:37.561Z,245.63
2023-05-10T10:18:37.841Z,246.78
2023-05-10T10:19:38.216Z,249.60
2023-05-10T10:20:37.792Z,253.41
2023-05-10T10:21:37.521Z,263.16
2023-05-10T10:22:37.502Z,248.79
2023-05-10T10:23:37.506Z,246.85
2023-05-10T10:24:37.488Z,249.32
2023-05-10T10:25:37.789Z,247.27
2023-05-10T10:26:37.453Z,249.07
2023-05-10T10:27:37.463Z,247.73
2023-05-10T10:28:37.456Z,248.54
2023-05-10T10:29:40.687Z,246.40
2023-05-10T10:30:37.798Z,246.62
2023-05-10T10:31:37.594Z,247.52
2023-05-10T10:32:38.489Z,248.96
2023-05-10T10:33:37.555Z,249.28
2023-05-10T10:34:37.409Z,251.25
2023-05-10T10:35:37.797Z,248.16
2023-05-10T10:36:37.395Z,245.40
2023-05-10T10:37:37.405Z,245.99
2023-05-10T10:38:37.392Z,245.79
2023-05-10T10:39:37.973Z,249.22
2023-05-10T10:40:37.358Z,250.00
2023-05-10T10:41:37.792Z,247.52
2023-05-10T10:42:37.342Z,247.69
2023-05-10T10:43:37.433Z,248.02
2023-05-10T10:44:37.441Z,248.78
2023-05-10T10:45:37.440Z,244.38
2023-05-10T10:46:37.465Z,247.04
2023-05-10T10:47:37.498Z,246.77
2023-05-10T10:48:37.496Z,248.82
2023-05-10T10:49:37.516Z,247.16
2023-05-10T10:50:38.108Z,245.20
2023-05-10T10:51:37.794Z,244.38
2023-05-10T10:52:37.605Z,245.52
2023-05-10T10:53:37.639Z,245.84
2023-05-10T10:54:37.811Z,247.02
2023-05-10T10:55:37.656Z,246.32
2023-05-10T10:56:37.733Z,247.78
2023-05-10T10:57:37.801Z,248.48
2023-05-10T10:58:37.720Z,247.82
2023-05-10T10:59:37.738Z,249.75
2023-05-10T11:00:38.330Z,248.08
2023-05-10T11:01:37.852Z,248.56
2023-05-10T11:02:37.793Z,247.93
2023-05-10T11:03:37.795Z,251.06
2023-05-10T11:04:38.328Z,249.72
2023-05-10T11:05:37.826Z,248.64
2023-05-10T11:06:37.835Z,248.03
2023-05-10T11:07:37.859Z,245.61
2023-05-10T11:08:38.398Z,243.77
2023-05-10T11:09:38.428Z,245.22
2023-05-10T11:10:37.936Z,242.18
2023-05-10T11:11:38.303Z,242.23
2023-05-10T11:12:37.972Z,240.51
2023-05-10T11:13:38.011Z,240.83
2023-05-10T11:14:38.053Z,236.22
2023-05-10T11:15:38.090Z,236.70
2023-05-10T11:16:38.368Z,236.95
2023-05-10T11:17:38.221Z,237.09
2023-05-10T11:18:41.445Z,236.31
2023-05-10T11:19:38.200Z,236.37
2023-05-10T11:20:38.191Z,236.06
2023-05-10T11:21:38.185Z,234.92
2023-05-10T11:22:38.177Z,232.72
2023-05-10T11:23:38.165Z,235.73
2023-05-10T11:24:38.159Z,232.46
2023-05-10T11:25:38.174Z,230.97
2023-05-10T11:26:38.171Z,232.38
2023-05-10T11:27:38.137Z,228.50
2023-05-10T11:28:38.131Z,229.50
2023-05-10T11:29:38.133Z,227.32
2023-05-10T11:30:38.145Z,231.20
2023-05-10T11:31:38.113Z,228.69
2023-05-10T11:32:38.148Z,227.05
2023-05-10T11:33:38.101Z,224.78
2023-05-10T11:34:38.122Z,226.37
2023-05-10T11:35:38.090Z,224.90
2023-05-10T11:36:38.114Z,224.76
2023-05-10T11:37:38.072Z,225.13
2023-05-10T11:38:38.069Z,222.93
2023-05-10T11:39:38.109Z,223.99
2023-05-10T11:40:38.166Z,221.67
2023-05-10T11:41:38.246Z,224.54
2023-05-10T11:42:38.341Z,221.84
2023-05-10T11:43:38.337Z,219.48
2023-05-10T11:44:38.393Z,222.58
2023-05-10T11:45:38.436Z,221.81
2023-05-10T11:46:38.540Z,221.44
2023-05-10T11:47:38.804Z,221.33
2023-05-10T11:48:38.579Z,221.75
2023-05-10T11:49:38.636Z,221.39
2023-05-10T11:50:38.659Z,216.69
2023-05-10T11:51:38.692Z,218.63
2023-05-10T11:52:38.745Z,219.65
2023-05-10T11:53:38.745Z,214.95
2023-05-10T11:54:38.773Z,215.81
2023-05-10T11:55:38.798Z,216.99
2023-05-10T11:56:38.818Z,214.92
2023-05-10T11:57:38.861Z,213.16
2023-05-10T11:58:39.321Z,214.00
2023-05-10T11:59:39.860Z,214.57
2023-05-10T12:00:39.836Z,217.93
2023-05-10T12:01:39.328Z,216.47
2023-05-10T12:02:38.899Z,215.98
2023-05-10T12:03:39.031Z,212.77
2023-05-10T12:04:38.911Z,213.99
2023-05-10T12:05:40.559Z,212.42
2023-05-10T12:06:38.831Z,212.60
2023-05-10T12:07:38.795Z,212.81
2023-05-10T12:08:38.811Z,212.55
2023-05-10T12:09:43.871Z,211.16
2023-05-10T12:10:38.791Z,211.46
2023-05-10T12:11:40.070Z,211.71
2023-05-10T12:12:38.767Z,211.41
2023-05-10T12:13:38.783Z,211.75
2023-05-10T12:14:38.764Z,210.89
2023-05-10T12:15:38.754Z,211.00
2023-05-10T12:16:38.769Z,207.03
2023-05-10T12:17:39.928Z,204.37
2023-05-10T12:18:38.795Z,204.55
2023-05-10T12:19:38.738Z,205.11
2023-05-10T12:20:38.722Z,204.73
2023-05-10T12:21:38.708Z,205.09
2023-05-10T12:22:38.697Z,206.13
2023-05-10T12:23:38.697Z,202.00
2023-05-10T12:24:38.757Z,202.99
2023-05-10T12:25:38.683Z,201.20
2023-05-10T12:26:38.671Z,201.64
2023-05-10T12:27:38.663Z,201.62
2023-05-10T12:28:39.338Z,198.37
2023-05-10T12:29:39.189Z,198.85
2023-05-10T12:30:38.640Z,198.67
2023-05-10T12:31:38.647Z,201.55
2023-05-10T12:32:38.654Z,197.47
2023-05-10T12:33:38.620Z,198.09
2023-05-10T12:34:38.624Z,198.21
2023-05-10T12:35:39.041Z,197.07
2023-05-10T12:36:38.614Z,198.92
2023-05-10T12:37:38.620Z,195.63
2023-05-10T12:38:38.610Z,195.38
2023-05-10T12:39:38.610Z,196.73